JZA7990 CYUL-CYDF
Flight info
| Callsign | JZA7990 |
|---|---|
| Flight time | 1h 53m |
| Altitude | 37000 |
| Route | SUXET DCT NOVUN DCT ESRAM DCT RABIK Q951 ANTOV DCT CROIX DCT OVIXI DCT USBAM DCT FROSS DCT YDF |
| Aircraft | CRJ9/M-SDFGIRWY/S |
Departure
| Time | 2026-04-23 00:56 |
|---|---|
| Airport | Montreal / Pierre Elliott Trudeau International Airport (CYUL) |
Arrival
| Time | 2026-04-23 02:49 |
|---|---|
| Airport | Deer Lake Airport (CYDF) |
| Time | Latitude | Longitude | Altitude | Speed | Heading |
|---|---|---|---|---|---|
| 2026-04-23 00:23 | 45.45893 | -73.74547 | 105 ft | 0 kts | 178° |
| 2026-04-23 00:40 | 45.45898 | -73.74547 | 105 ft | 1 kts | 178° |
| 2026-04-23 00:41 | 45.45906 | -73.74547 | 105 ft | 1 kts | 178° |
| 2026-04-23 00:41 | 45.45914 | -73.74548 | 105 ft | 1 kts | 178° |
| 2026-04-23 00:41 | 45.45921 | -73.74548 | 105 ft | 1 kts | 178° |
| 2026-04-23 00:41 | 45.45928 | -73.74548 | 107 ft | 1 kts | 178° |
| 2026-04-23 00:42 | 45.45936 | -73.74549 | 106 ft | 1 kts | 163° |
| 2026-04-23 00:42 | 45.45942 | -73.74554 | 107 ft | 1 kts | 138° |
| 2026-04-23 00:42 | 45.45947 | -73.74562 | 107 ft | 1 kts | 129° |
| 2026-04-23 00:42 | 45.45952 | -73.74570 | 106 ft | 1 kts | 129° |
| 2026-04-23 00:43 | 45.45957 | -73.74579 | 106 ft | 1 kts | 129° |
| 2026-04-23 00:43 | 45.45960 | -73.74585 | 107 ft | 1 kts | 102° |
| 2026-04-23 00:43 | 45.45960 | -73.74589 | 108 ft | 0 kts | 74° |
| 2026-04-23 00:46 | 45.45961 | -73.74587 | 107 ft | 1 kts | 74° |
| 2026-04-23 00:46 | 45.45966 | -73.74563 | 108 ft | 4 kts | 72° |
| 2026-04-23 00:46 | 45.45979 | -73.74509 | 108 ft | 8 kts | 70° |
| 2026-04-23 00:47 | 45.46004 | -73.74413 | 107 ft | 13 kts | 66° |
| 2026-04-23 00:47 | 45.46062 | -73.74299 | 104 ft | 11 kts | 48° |
| 2026-04-23 00:47 | 45.46120 | -73.74217 | 105 ft | 13 kts | 43° |
| 2026-04-23 00:47 | 45.46196 | -73.74123 | 104 ft | 17 kts | 39° |
| 2026-04-23 00:48 | 45.46280 | -73.74021 | 107 ft | 13 kts | 40° |
| 2026-04-23 00:48 | 45.46339 | -73.73937 | 108 ft | 12 kts | 67° |
| 2026-04-23 00:48 | 45.46352 | -73.73802 | 106 ft | 15 kts | 76° |
| 2026-04-23 00:48 | 45.46417 | -73.73693 | 110 ft | 14 kts | 42° |
| 2026-04-23 00:49 | 45.46487 | -73.73600 | 111 ft | 15 kts | 43° |
| 2026-04-23 00:49 | 45.46567 | -73.73494 | 111 ft | 17 kts | 43° |
| 2026-04-23 00:49 | 45.46655 | -73.73379 | 110 ft | 18 kts | 43° |
| 2026-04-23 00:49 | 45.46753 | -73.73251 | 111 ft | 20 kts | 43° |
| 2026-04-23 00:50 | 45.46852 | -73.73122 | 112 ft | 20 kts | 43° |
| 2026-04-23 00:50 | 45.46951 | -73.72988 | 115 ft | 19 kts | 50° |
| 2026-04-23 00:50 | 45.47045 | -73.72869 | 117 ft | 19 kts | 43° |
| 2026-04-23 00:50 | 45.47142 | -73.72742 | 117 ft | 19 kts | 43° |
| 2026-04-23 00:51 | 45.47246 | -73.72607 | 116 ft | 22 kts | 42° |
| 2026-04-23 00:51 | 45.47359 | -73.72456 | 117 ft | 23 kts | 42° |
| 2026-04-23 00:51 | 45.47478 | -73.72300 | 119 ft | 23 kts | 43° |
| 2026-04-23 00:51 | 45.47594 | -73.72148 | 122 ft | 23 kts | 43° |
| 2026-04-23 00:52 | 45.47708 | -73.71999 | 123 ft | 22 kts | 43° |
| 2026-04-23 00:52 | 45.47816 | -73.71857 | 123 ft | 14 kts | 43° |
| 2026-04-23 00:52 | 45.47831 | -73.71745 | 122 ft | 13 kts | 127° |
| 2026-04-23 00:52 | 45.47801 | -73.71705 | 123 ft | 0 kts | 144° |
| 2026-04-23 00:54 | 45.47793 | -73.71698 | 119 ft | 4 kts | 147° |
| 2026-04-23 00:54 | 45.47760 | -73.71673 | 121 ft | 7 kts | 156° |
| 2026-04-23 00:54 | 45.47705 | -73.71648 | 122 ft | 10 kts | 173° |
| 2026-04-23 00:54 | 45.47659 | -73.71665 | 120 ft | 0 kts | 218° |
| 2026-04-23 00:55 | 45.47487 | -73.71887 | 121 ft | 74 kts | 223° |
| 2026-04-23 00:55 | 45.46922 | -73.72625 | 116 ft | 142 kts | 223° |
| 2026-04-23 00:55 | 45.46098 | -73.73721 | 377 ft | 175 kts | 223° |
| 2026-04-23 00:56 | 45.45214 | -73.74940 | 1242 ft | 171 kts | 224° |
| 2026-04-23 00:56 | 45.44381 | -73.76121 | 2105 ft | 178 kts | 224° |
| 2026-04-23 00:56 | 45.43439 | -73.77407 | 2685 ft | 196 kts | 224° |
| 2026-04-23 00:56 | 45.42417 | -73.78741 | 3463 ft | 201 kts | 224° |
| 2026-04-23 00:57 | 45.41359 | -73.80065 | 4252 ft | 205 kts | 224° |
| 2026-04-23 00:57 | 45.40222 | -73.81442 | 4698 ft | 227 kts | 224° |
| 2026-04-23 00:57 | 45.38929 | -73.82951 | 4898 ft | 255 kts | 221° |
| 2026-04-23 00:57 | 45.37315 | -73.83861 | 4889 ft | 250 kts | 187° |
| 2026-04-23 00:58 | 45.35663 | -73.83274 | 4750 ft | 251 kts | 149° |
| 2026-04-23 00:58 | 45.34472 | -73.81417 | 4540 ft | 258 kts | 118° |
| 2026-04-23 00:58 | 45.33505 | -73.79290 | 5203 ft | 256 kts | 124° |
| 2026-04-23 00:58 | 45.32811 | -73.76929 | 6045 ft | 268 kts | 95° |
| 2026-04-23 00:59 | 45.32533 | -73.74256 | 6852 ft | 278 kts | 97° |
| 2026-04-23 00:59 | 45.32126 | -73.71536 | 7732 ft | 285 kts | 102° |
| 2026-04-23 00:59 | 45.31568 | -73.68799 | 8592 ft | 292 kts | 105° |
| 2026-04-23 00:59 | 45.30955 | -73.66022 | 9446 ft | 298 kts | 105° |
| 2026-04-23 01:00 | 45.30336 | -73.63183 | 10235 ft | 303 kts | 104° |
| 2026-04-23 01:00 | 45.29728 | -73.60280 | 10874 ft | 309 kts | 104° |
| 2026-04-23 01:00 | 45.29115 | -73.57330 | 11508 ft | 314 kts | 104° |
| 2026-04-23 01:00 | 45.28498 | -73.54375 | 12176 ft | 318 kts | 105° |
| 2026-04-23 01:01 | 45.27863 | -73.51342 | 12757 ft | 325 kts | 105° |
| 2026-04-23 01:01 | 45.27207 | -73.48185 | 13036 ft | 342 kts | 104° |
| 2026-04-23 01:01 | 45.26525 | -73.44883 | 13484 ft | 352 kts | 104° |
| 2026-04-23 01:01 | 45.25822 | -73.41533 | 14075 ft | 357 kts | 105° |
| 2026-04-23 01:02 | 45.25108 | -73.38141 | 14668 ft | 360 kts | 105° |
| 2026-04-23 01:02 | 45.24387 | -73.34720 | 15264 ft | 364 kts | 104° |
| 2026-04-23 01:02 | 45.23658 | -73.31266 | 15867 ft | 367 kts | 104° |
| 2026-04-23 01:02 | 45.22921 | -73.27785 | 16454 ft | 371 kts | 104° |
| 2026-04-23 01:03 | 45.22177 | -73.24269 | 17012 ft | 374 kts | 104° |
| 2026-04-23 01:03 | 45.21421 | -73.20721 | 17587 ft | 377 kts | 104° |
| 2026-04-23 01:03 | 45.20738 | -73.17175 | 18083 ft | 379 kts | 96° |
| 2026-04-23 01:03 | 45.20479 | -73.13465 | 18563 ft | 378 kts | 87° |
| 2026-04-23 01:04 | 45.20529 | -73.09748 | 19011 ft | 378 kts | 82° |
| 2026-04-23 01:04 | 45.20705 | -73.06022 | 19449 ft | 380 kts | 81° |
| 2026-04-23 01:04 | 45.21288 | -72.98565 | 20296 ft | 376 kts | 64° |
| 2026-04-23 01:05 | 45.22364 | -72.95251 | 20752 ft | 368 kts | 52° |
| 2026-04-23 01:05 | 45.23683 | -72.92138 | 21206 ft | 368 kts | 50° |
| 2026-04-23 01:05 | 45.25027 | -72.89088 | 21644 ft | 371 kts | 50° |
| 2026-04-23 01:05 | 45.26374 | -72.85949 | 22055 ft | 374 kts | 51° |
| 2026-04-23 01:06 | 45.27679 | -72.82737 | 22461 ft | 377 kts | 52° |
| 2026-04-23 01:06 | 45.28935 | -72.79438 | 22818 ft | 385 kts | 59° |
| 2026-04-23 01:06 | 45.29591 | -72.75674 | 23170 ft | 401 kts | 78° |
| 2026-04-23 01:06 | 45.29758 | -72.71697 | 23496 ft | 406 kts | 83° |
| 2026-04-23 01:07 | 45.29809 | -72.67669 | 23786 ft | 409 kts | 84° |
| 2026-04-23 01:07 | 45.29860 | -72.63624 | 24063 ft | 410 kts | 83° |
| 2026-04-23 01:07 | 45.29981 | -72.59577 | 24322 ft | 411 kts | 81° |
| 2026-04-23 01:07 | 45.30182 | -72.55528 | 24583 ft | 411 kts | 79° |
| 2026-04-23 01:08 | 45.30425 | -72.51476 | 24827 ft | 413 kts | 79° |
| 2026-04-23 01:08 | 45.30579 | -72.48783 | 24997 ft | 414 kts | 79° |
| 2026-04-23 01:08 | 45.30804 | -72.44700 | 25235 ft | 415 kts | 79° |
| 2026-04-23 01:08 | 45.31026 | -72.40603 | 25474 ft | 417 kts | 79° |
| 2026-04-23 01:09 | 45.31248 | -72.36494 | 25706 ft | 418 kts | 79° |
| 2026-04-23 01:09 | 45.31543 | -72.31042 | 26162 ft | 414 kts | 79° |
| 2026-04-23 01:09 | 45.31756 | -72.26999 | 26637 ft | 409 kts | 79° |
| 2026-04-23 01:09 | 45.31973 | -72.22962 | 26853 ft | 411 kts | 79° |
| 2026-04-23 01:10 | 45.32119 | -72.20220 | 26960 ft | 412 kts | 79° |
| 2026-04-23 01:10 | 45.32326 | -72.16217 | 27174 ft | 413 kts | 79° |
| 2026-04-23 01:10 | 45.32541 | -72.12141 | 27373 ft | 414 kts | 79° |
| 2026-04-23 01:10 | 45.32752 | -72.08056 | 27563 ft | 415 kts | 79° |
| 2026-04-23 01:11 | 45.32961 | -72.03960 | 27737 ft | 416 kts | 79° |
| 2026-04-23 01:11 | 45.33170 | -71.99852 | 27918 ft | 417 kts | 79° |
| 2026-04-23 01:11 | 45.33442 | -71.94479 | 28571 ft | 407 kts | 78° |
| 2026-04-23 01:11 | 45.33581 | -71.91763 | 28705 ft | 408 kts | 78° |
| 2026-04-23 01:12 | 45.33798 | -71.87733 | 28849 ft | 409 kts | 78° |
| 2026-04-23 01:12 | 45.34103 | -71.83776 | 29013 ft | 407 kts | 75° |
| 2026-04-23 01:12 | 45.34534 | -71.79751 | 29179 ft | 407 kts | 73° |
| 2026-04-23 01:12 | 45.34999 | -71.75840 | 29318 ft | 408 kts | 73° |
| 2026-04-23 01:13 | 45.35471 | -71.71861 | 29471 ft | 409 kts | 73° |
| 2026-04-23 01:13 | 45.35939 | -71.67875 | 29613 ft | 409 kts | 73° |
| 2026-04-23 01:13 | 45.36391 | -71.63867 | 29753 ft | 411 kts | 73° |
| 2026-04-23 01:13 | 45.36830 | -71.59853 | 29886 ft | 412 kts | 73° |
| 2026-04-23 01:14 | 45.37263 | -71.55823 | 30009 ft | 413 kts | 73° |
| 2026-04-23 01:14 | 45.37699 | -71.51779 | 30132 ft | 413 kts | 73° |
| 2026-04-23 01:14 | 45.38125 | -71.47745 | 30370 ft | 409 kts | 75° |
| 2026-04-23 01:14 | 45.38519 | -71.43778 | 30714 ft | 403 kts | 75° |
| 2026-04-23 01:15 | 45.39297 | -71.35867 | 30882 ft | 405 kts | 75° |
| 2026-04-23 01:15 | 45.40115 | -71.27990 | 31052 ft | 406 kts | 75° |
| 2026-04-23 01:16 | 45.40943 | -71.20040 | 31259 ft | 406 kts | 75° |
| 2026-04-23 01:16 | 45.41766 | -71.12072 | 31400 ft | 407 kts | 75° |
| 2026-04-23 01:17 | 45.42596 | -71.04079 | 31551 ft | 408 kts | 74° |
| 2026-04-23 01:17 | 45.43322 | -71.00243 | 31621 ft | 398 kts | 61° |
| 2026-04-23 01:17 | 45.44466 | -70.96746 | 31678 ft | 393 kts | 55° |
| 2026-04-23 01:18 | 45.46977 | -70.89841 | 31859 ft | 395 kts | 57° |
| 2026-04-23 01:18 | 45.49266 | -70.82712 | 32048 ft | 396 kts | 58° |
| 2026-04-23 01:19 | 45.50407 | -70.79147 | 32303 ft | 395 kts | 58° |
| 2026-04-23 01:19 | 45.51555 | -70.75590 | 32546 ft | 395 kts | 58° |
| 2026-04-23 01:19 | 45.52715 | -70.72044 | 32811 ft | 395 kts | 57° |
| 2026-04-23 01:19 | 45.53882 | -70.68505 | 33109 ft | 394 kts | 58° |
| 2026-04-23 01:20 | 45.55041 | -70.65011 | 33335 ft | 394 kts | 58° |
| 2026-04-23 01:20 | 45.56201 | -70.61468 | 33583 ft | 394 kts | 58° |
| 2026-04-23 01:20 | 45.57355 | -70.57915 | 33795 ft | 395 kts | 58° |
| 2026-04-23 01:20 | 45.58507 | -70.54357 | 34024 ft | 395 kts | 58° |
| 2026-04-23 01:21 | 45.59659 | -70.50796 | 34221 ft | 395 kts | 58° |
| 2026-04-23 01:21 | 45.60815 | -70.47219 | 34332 ft | 397 kts | 58° |
| 2026-04-23 01:21 | 45.61971 | -70.43640 | 34515 ft | 397 kts | 59° |
| 2026-04-23 01:21 | 45.63123 | -70.40061 | 34703 ft | 397 kts | 58° |
| 2026-04-23 01:22 | 45.64261 | -70.36525 | 34872 ft | 397 kts | 59° |
| 2026-04-23 01:22 | 45.65413 | -70.32937 | 35039 ft | 397 kts | 59° |
| 2026-04-23 01:22 | 45.66565 | -70.29350 | 35231 ft | 397 kts | 59° |
| 2026-04-23 01:22 | 45.67711 | -70.25763 | 35423 ft | 396 kts | 59° |
| 2026-04-23 01:23 | 45.68858 | -70.22179 | 35597 ft | 396 kts | 59° |
| 2026-04-23 01:23 | 45.70004 | -70.18591 | 35755 ft | 397 kts | 59° |
| 2026-04-23 01:23 | 45.71148 | -70.15005 | 35917 ft | 397 kts | 59° |
| 2026-04-23 01:23 | 45.72291 | -70.11420 | 36075 ft | 396 kts | 59° |
| 2026-04-23 01:24 | 45.73434 | -70.07824 | 36229 ft | 396 kts | 60° |
| 2026-04-23 01:24 | 45.74561 | -70.04280 | 36350 ft | 397 kts | 60° |
| 2026-04-23 01:24 | 45.75701 | -70.00684 | 36515 ft | 397 kts | 60° |
| 2026-04-23 01:24 | 45.76841 | -69.97086 | 36681 ft | 396 kts | 60° |
| 2026-04-23 01:25 | 45.77980 | -69.93488 | 36790 ft | 397 kts | 60° |
| 2026-04-23 01:25 | 45.79118 | -69.89887 | 36937 ft | 397 kts | 60° |
| 2026-04-23 01:25 | 45.81406 | -69.82625 | 37044 ft | 403 kts | 60° |
| 2026-04-23 01:26 | 45.83717 | -69.75270 | 37061 ft | 411 kts | 61° |
| 2026-04-23 01:26 | 45.86082 | -69.67722 | 37065 ft | 419 kts | 61° |
| 2026-04-23 01:27 | 45.88493 | -69.60008 | 37063 ft | 428 kts | 61° |
| 2026-04-23 01:27 | 45.90946 | -69.52136 | 37073 ft | 436 kts | 61° |
| 2026-04-23 01:28 | 45.93438 | -69.44113 | 37077 ft | 444 kts | 62° |
| 2026-04-23 01:28 | 45.95952 | -69.35993 | 37066 ft | 452 kts | 62° |
| 2026-04-23 01:29 | 45.98524 | -69.27672 | 37068 ft | 459 kts | 62° |
| 2026-04-23 01:29 | 46.01137 | -69.19225 | 37068 ft | 466 kts | 62° |
| 2026-04-23 01:30 | 46.03761 | -69.10668 | 37068 ft | 469 kts | 62° |
| 2026-04-23 01:30 | 46.06378 | -69.02111 | 37093 ft | 472 kts | 62° |
| 2026-04-23 01:31 | 46.09019 | -68.93428 | 37082 ft | 475 kts | 62° |
| 2026-04-23 01:31 | 46.11669 | -68.84696 | 37101 ft | 476 kts | 63° |
| 2026-04-23 01:32 | 46.14297 | -68.76003 | 37091 ft | 476 kts | 63° |
| 2026-04-23 01:32 | 46.16938 | -68.67233 | 37083 ft | 476 kts | 63° |
| 2026-04-23 01:33 | 46.19574 | -68.58464 | 37103 ft | 476 kts | 63° |
| 2026-04-23 01:33 | 46.22182 | -68.49745 | 37098 ft | 476 kts | 63° |
| 2026-04-23 01:34 | 46.24776 | -68.41030 | 37112 ft | 475 kts | 63° |
| 2026-04-23 01:34 | 46.27401 | -68.32209 | 37108 ft | 474 kts | 63° |
| 2026-04-23 01:35 | 46.29949 | -68.23405 | 37114 ft | 474 kts | 65° |
| 2026-04-23 01:35 | 46.32290 | -68.14483 | 37122 ft | 474 kts | 66° |
| 2026-04-23 01:36 | 46.34650 | -68.05577 | 37109 ft | 474 kts | 66° |
| 2026-04-23 01:36 | 46.37043 | -67.96703 | 37088 ft | 473 kts | 66° |
| 2026-04-23 01:37 | 46.39414 | -67.87818 | 37076 ft | 473 kts | 66° |
| 2026-04-23 01:37 | 46.41753 | -67.78996 | 37076 ft | 472 kts | 66° |
| 2026-04-23 01:38 | 46.44107 | -67.70122 | 37096 ft | 472 kts | 66° |
| 2026-04-23 01:38 | 46.46449 | -67.61234 | 37082 ft | 472 kts | 67° |
| 2026-04-23 01:39 | 46.48780 | -67.52341 | 37089 ft | 471 kts | 67° |
| 2026-04-23 01:39 | 46.51092 | -67.43516 | 37083 ft | 471 kts | 67° |
| 2026-04-23 01:40 | 46.53410 | -67.34622 | 37089 ft | 471 kts | 67° |
| 2026-04-23 01:40 | 46.55719 | -67.25731 | 37089 ft | 470 kts | 67° |
| 2026-04-23 01:41 | 46.58022 | -67.16836 | 37091 ft | 470 kts | 67° |
| 2026-04-23 01:41 | 46.60297 | -67.08002 | 37099 ft | 470 kts | 67° |
| 2026-04-23 01:42 | 46.62581 | -66.99099 | 37097 ft | 470 kts | 67° |
| 2026-04-23 01:42 | 46.64858 | -66.90197 | 37098 ft | 469 kts | 68° |
| 2026-04-23 01:43 | 46.67127 | -66.81289 | 37102 ft | 469 kts | 68° |
| 2026-04-23 01:43 | 46.69391 | -66.72386 | 37107 ft | 469 kts | 68° |
| 2026-04-23 01:44 | 46.71624 | -66.63529 | 37103 ft | 469 kts | 68° |
| 2026-04-23 01:44 | 46.73876 | -66.54592 | 37102 ft | 469 kts | 68° |
| 2026-04-23 01:45 | 46.76115 | -66.45655 | 37104 ft | 470 kts | 68° |
| 2026-04-23 01:45 | 46.78353 | -66.36696 | 37106 ft | 470 kts | 68° |
| 2026-04-23 01:46 | 46.80573 | -66.27784 | 37116 ft | 471 kts | 69° |
| 2026-04-23 01:46 | 46.82804 | -66.18779 | 37120 ft | 472 kts | 69° |
| 2026-04-23 01:47 | 46.85028 | -66.09751 | 37115 ft | 473 kts | 69° |
| 2026-04-23 01:47 | 46.87257 | -66.00708 | 37118 ft | 473 kts | 69° |
| 2026-04-23 01:48 | 46.89457 | -65.91705 | 37119 ft | 474 kts | 69° |
| 2026-04-23 01:48 | 46.91669 | -65.82626 | 37134 ft | 474 kts | 70° |
| 2026-04-23 01:49 | 46.93885 | -65.73526 | 37127 ft | 475 kts | 70° |
| 2026-04-23 01:49 | 46.96084 | -65.64411 | 37124 ft | 475 kts | 70° |
| 2026-04-23 01:50 | 46.98270 | -65.55338 | 37125 ft | 476 kts | 70° |
| 2026-04-23 01:50 | 47.00470 | -65.46195 | 37123 ft | 476 kts | 70° |
| 2026-04-23 01:51 | 47.02963 | -65.37219 | 37125 ft | 476 kts | 65° |
| 2026-04-23 01:51 | 47.05644 | -65.28343 | 37128 ft | 476 kts | 66° |
| 2026-04-23 01:52 | 47.08210 | -65.19456 | 37122 ft | 476 kts | 67° |
| 2026-04-23 01:52 | 47.10782 | -65.10498 | 37122 ft | 476 kts | 67° |
| 2026-04-23 01:53 | 47.13347 | -65.01521 | 37117 ft | 477 kts | 67° |
| 2026-04-23 01:53 | 47.15906 | -64.92536 | 37119 ft | 477 kts | 67° |
| 2026-04-23 01:54 | 47.18439 | -64.83602 | 37121 ft | 477 kts | 68° |
| 2026-04-23 01:54 | 47.20982 | -64.74601 | 37128 ft | 477 kts | 68° |
| 2026-04-23 01:55 | 47.23519 | -64.65596 | 37126 ft | 477 kts | 68° |
| 2026-04-23 01:55 | 47.26052 | -64.56572 | 37128 ft | 477 kts | 68° |
| 2026-04-23 01:56 | 47.28576 | -64.47544 | 37137 ft | 477 kts | 68° |
| 2026-04-23 01:56 | 47.31074 | -64.38564 | 37138 ft | 477 kts | 68° |
| 2026-04-23 01:57 | 47.33583 | -64.29519 | 37135 ft | 477 kts | 69° |
| 2026-04-23 01:57 | 47.36084 | -64.20470 | 37135 ft | 476 kts | 69° |
| 2026-04-23 01:58 | 47.38573 | -64.11428 | 37139 ft | 476 kts | 69° |
| 2026-04-23 01:58 | 47.41063 | -64.02354 | 37137 ft | 476 kts | 69° |
| 2026-04-23 01:59 | 47.43523 | -63.93346 | 37140 ft | 476 kts | 69° |
| 2026-04-23 01:59 | 47.45991 | -63.84279 | 37140 ft | 476 kts | 70° |
| 2026-04-23 02:00 | 47.48446 | -63.75218 | 37141 ft | 475 kts | 70° |
| 2026-04-23 02:00 | 47.50898 | -63.66138 | 37142 ft | 475 kts | 70° |
| 2026-04-23 02:01 | 47.53324 | -63.57125 | 37139 ft | 475 kts | 70° |
| 2026-04-23 02:01 | 47.55763 | -63.48018 | 37137 ft | 475 kts | 70° |
| 2026-04-23 02:02 | 47.58184 | -63.38951 | 37137 ft | 474 kts | 70° |
| 2026-04-23 02:02 | 47.60590 | -63.29908 | 37134 ft | 474 kts | 70° |
| 2026-04-23 02:03 | 47.63002 | -63.20803 | 37130 ft | 474 kts | 70° |
| 2026-04-23 02:03 | 47.65430 | -63.11718 | 37124 ft | 474 kts | 70° |
| 2026-04-23 02:04 | 47.67922 | -63.02660 | 37129 ft | 474 kts | 70° |
| 2026-04-23 02:04 | 47.70412 | -62.93618 | 37126 ft | 473 kts | 70° |
| 2026-04-23 02:05 | 47.72874 | -62.84630 | 37126 ft | 473 kts | 70° |
| 2026-04-23 02:05 | 47.75343 | -62.75571 | 37124 ft | 473 kts | 70° |
| 2026-04-23 02:06 | 47.77804 | -62.66519 | 37125 ft | 472 kts | 70° |
| 2026-04-23 02:06 | 47.80258 | -62.57454 | 37123 ft | 472 kts | 70° |
| 2026-04-23 02:07 | 47.82687 | -62.48446 | 37122 ft | 472 kts | 71° |
| 2026-04-23 02:07 | 47.85123 | -62.39380 | 37119 ft | 472 kts | 71° |
| 2026-04-23 02:08 | 47.87556 | -62.30296 | 37111 ft | 472 kts | 71° |
| 2026-04-23 02:08 | 47.89978 | -62.21232 | 37114 ft | 471 kts | 71° |
| 2026-04-23 02:09 | 47.92367 | -62.12220 | 37113 ft | 471 kts | 71° |
| 2026-04-23 02:09 | 47.94764 | -62.03143 | 37109 ft | 470 kts | 71° |
| 2026-04-23 02:10 | 47.97159 | -61.94065 | 37113 ft | 470 kts | 71° |
| 2026-04-23 02:10 | 47.99534 | -61.85017 | 37109 ft | 470 kts | 72° |
| 2026-04-23 02:11 | 48.01911 | -61.75939 | 37100 ft | 470 kts | 72° |
| 2026-04-23 02:11 | 48.04279 | -61.66842 | 37097 ft | 469 kts | 72° |
| 2026-04-23 02:12 | 48.06630 | -61.57760 | 37099 ft | 468 kts | 72° |
| 2026-04-23 02:12 | 48.08972 | -61.48699 | 37098 ft | 468 kts | 72° |
| 2026-04-23 02:13 | 48.11297 | -61.39665 | 37099 ft | 468 kts | 72° |
| 2026-04-23 02:13 | 48.13628 | -61.30581 | 37085 ft | 468 kts | 73° |
| 2026-04-23 02:14 | 48.15969 | -61.21505 | 37093 ft | 468 kts | 72° |
| 2026-04-23 02:14 | 48.18399 | -61.12457 | 37090 ft | 468 kts | 72° |
| 2026-04-23 02:15 | 48.22010 | -60.98848 | 37085 ft | 467 kts | 72° |
| 2026-04-23 02:16 | 48.24393 | -60.89853 | 37081 ft | 467 kts | 72° |
| 2026-04-23 02:16 | 48.26780 | -60.80796 | 37082 ft | 466 kts | 72° |
| 2026-04-23 02:17 | 48.29154 | -60.71733 | 37079 ft | 466 kts | 72° |
| 2026-04-23 02:17 | 48.31522 | -60.62680 | 37080 ft | 466 kts | 72° |
| 2026-04-23 02:18 | 48.33872 | -60.53658 | 37073 ft | 466 kts | 73° |
| 2026-04-23 02:18 | 48.36226 | -60.44582 | 37018 ft | 467 kts | 73° |
| 2026-04-23 02:18 | 48.37410 | -60.40010 | 36553 ft | 471 kts | 73° |
| 2026-04-23 02:19 | 48.38597 | -60.35414 | 36072 ft | 475 kts | 73° |
| 2026-04-23 02:19 | 48.39792 | -60.30777 | 35607 ft | 474 kts | 73° |
| 2026-04-23 02:19 | 48.40984 | -60.26148 | 35130 ft | 472 kts | 73° |
| 2026-04-23 02:19 | 48.42165 | -60.21559 | 34675 ft | 470 kts | 73° |
| 2026-04-23 02:20 | 48.43317 | -60.17057 | 34235 ft | 468 kts | 74° |
| 2026-04-23 02:20 | 48.44490 | -60.12464 | 33731 ft | 466 kts | 74° |
| 2026-04-23 02:20 | 48.45637 | -60.07956 | 33214 ft | 463 kts | 74° |
| 2026-04-23 02:20 | 48.46787 | -60.03434 | 32700 ft | 459 kts | 74° |
| 2026-04-23 02:21 | 48.47925 | -59.98954 | 32193 ft | 456 kts | 74° |
| 2026-04-23 02:21 | 48.49056 | -59.94515 | 31678 ft | 453 kts | 74° |
| 2026-04-23 02:21 | 48.50173 | -59.90114 | 31194 ft | 450 kts | 75° |
| 2026-04-23 02:21 | 48.51272 | -59.85755 | 30719 ft | 447 kts | 75° |
| 2026-04-23 02:22 | 48.52370 | -59.81386 | 30248 ft | 445 kts | 75° |
| 2026-04-23 02:22 | 48.53448 | -59.77100 | 29713 ft | 442 kts | 75° |
| 2026-04-23 02:22 | 48.54558 | -59.72669 | 29128 ft | 440 kts | 75° |
| 2026-04-23 02:22 | 48.55639 | -59.68356 | 28578 ft | 438 kts | 75° |
| 2026-04-23 02:23 | 48.56713 | -59.64057 | 28036 ft | 437 kts | 75° |
| 2026-04-23 02:23 | 48.57781 | -59.59775 | 27511 ft | 435 kts | 74° |
| 2026-04-23 02:23 | 48.58850 | -59.55506 | 26978 ft | 434 kts | 74° |
| 2026-04-23 02:23 | 48.59914 | -59.51245 | 26438 ft | 433 kts | 75° |
| 2026-04-23 02:24 | 48.60984 | -59.47003 | 25941 ft | 432 kts | 75° |
| 2026-04-23 02:24 | 48.62058 | -59.42767 | 25449 ft | 430 kts | 75° |
| 2026-04-23 02:24 | 48.63110 | -59.38608 | 24973 ft | 428 kts | 75° |
| 2026-04-23 02:24 | 48.64172 | -59.34422 | 24488 ft | 425 kts | 75° |
| 2026-04-23 02:25 | 48.65225 | -59.30271 | 24021 ft | 421 kts | 75° |
| 2026-04-23 02:25 | 48.66269 | -59.26161 | 23548 ft | 417 kts | 75° |
| 2026-04-23 02:25 | 48.67307 | -59.22089 | 22981 ft | 413 kts | 74° |
| 2026-04-23 02:25 | 48.68335 | -59.18050 | 22427 ft | 410 kts | 74° |
| 2026-04-23 02:26 | 48.69356 | -59.14033 | 21876 ft | 408 kts | 73° |
| 2026-04-23 02:26 | 48.70371 | -59.10035 | 21342 ft | 406 kts | 73° |
| 2026-04-23 02:26 | 48.71371 | -59.06100 | 20805 ft | 405 kts | 74° |
| 2026-04-23 02:26 | 48.72379 | -59.02141 | 20300 ft | 403 kts | 74° |
| 2026-04-23 02:27 | 48.73382 | -58.98191 | 19794 ft | 401 kts | 73° |
| 2026-04-23 02:27 | 48.74526 | -58.94331 | 19280 ft | 405 kts | 64° |
| 2026-04-23 02:27 | 48.75938 | -58.90674 | 18801 ft | 400 kts | 66° |
| 2026-04-23 02:27 | 48.77174 | -58.86911 | 18311 ft | 397 kts | 67° |
| 2026-04-23 02:28 | 48.78448 | -58.83230 | 17777 ft | 392 kts | 64° |
| 2026-04-23 02:28 | 48.79851 | -58.79701 | 17192 ft | 387 kts | 62° |
| 2026-04-23 02:28 | 48.81260 | -58.76318 | 16659 ft | 381 kts | 62° |
| 2026-04-23 02:28 | 48.82654 | -58.72944 | 16126 ft | 372 kts | 61° |
| 2026-04-23 02:29 | 48.84001 | -58.69647 | 15600 ft | 363 kts | 62° |
| 2026-04-23 02:29 | 48.85301 | -58.66426 | 15219 ft | 351 kts | 62° |
| 2026-04-23 02:29 | 48.86557 | -58.63333 | 14953 ft | 338 kts | 62° |
| 2026-04-23 02:29 | 48.87769 | -58.60337 | 14688 ft | 328 kts | 62° |
| 2026-04-23 02:30 | 48.88938 | -58.57421 | 14426 ft | 319 kts | 62° |
| 2026-04-23 02:30 | 48.90078 | -58.54577 | 14164 ft | 312 kts | 62° |
| 2026-04-23 02:30 | 48.91194 | -58.51766 | 13905 ft | 310 kts | 62° |
| 2026-04-23 02:30 | 48.92313 | -58.48971 | 13625 ft | 309 kts | 62° |
| 2026-04-23 02:31 | 48.93402 | -58.46213 | 13390 ft | 307 kts | 62° |
| 2026-04-23 02:31 | 48.94495 | -58.43439 | 13165 ft | 305 kts | 62° |
| 2026-04-23 02:31 | 48.95569 | -58.40659 | 12939 ft | 304 kts | 63° |
| 2026-04-23 02:31 | 48.96643 | -58.37900 | 12721 ft | 303 kts | 62° |
| 2026-04-23 02:32 | 48.97719 | -58.35155 | 12503 ft | 301 kts | 61° |
| 2026-04-23 02:32 | 48.98802 | -58.32434 | 12295 ft | 300 kts | 60° |
| 2026-04-23 02:32 | 48.99873 | -58.29722 | 12091 ft | 298 kts | 60° |
| 2026-04-23 02:32 | 49.00940 | -58.27021 | 11880 ft | 297 kts | 60° |
| 2026-04-23 02:33 | 49.01986 | -58.24370 | 11668 ft | 295 kts | 59° |
| 2026-04-23 02:33 | 49.03045 | -58.21695 | 11462 ft | 294 kts | 59° |
| 2026-04-23 02:33 | 49.04098 | -58.19028 | 11253 ft | 293 kts | 59° |
| 2026-04-23 02:33 | 49.05143 | -58.16377 | 11052 ft | 291 kts | 59° |
| 2026-04-23 02:34 | 49.06181 | -58.13737 | 10849 ft | 290 kts | 58° |
| 2026-04-23 02:34 | 49.07215 | -58.11110 | 10651 ft | 288 kts | 58° |
| 2026-04-23 02:34 | 49.08242 | -58.08494 | 10455 ft | 286 kts | 58° |
| 2026-04-23 02:34 | 49.09263 | -58.05896 | 10255 ft | 285 kts | 57° |
| 2026-04-23 02:35 | 49.10276 | -58.03311 | 10063 ft | 283 kts | 57° |
| 2026-04-23 02:35 | 49.11271 | -58.00777 | 9863 ft | 282 kts | 57° |
| 2026-04-23 02:35 | 49.12273 | -57.98217 | 9653 ft | 280 kts | 57° |
| 2026-04-23 02:35 | 49.13269 | -57.95675 | 9442 ft | 278 kts | 57° |
| 2026-04-23 02:36 | 49.14284 | -57.93172 | 9216 ft | 275 kts | 58° |
| 2026-04-23 02:36 | 49.15279 | -57.90694 | 8996 ft | 273 kts | 58° |
| 2026-04-23 02:36 | 49.16255 | -57.88225 | 8770 ft | 270 kts | 58° |
| 2026-04-23 02:36 | 49.17214 | -57.85767 | 8560 ft | 268 kts | 58° |
| 2026-04-23 02:37 | 49.18151 | -57.83362 | 8335 ft | 265 kts | 58° |
| 2026-04-23 02:37 | 49.19093 | -57.80950 | 8128 ft | 264 kts | 58° |
| 2026-04-23 02:37 | 49.20023 | -57.78544 | 7911 ft | 262 kts | 58° |
| 2026-04-23 02:37 | 49.20944 | -57.76146 | 7702 ft | 261 kts | 57° |
| 2026-04-23 02:38 | 49.21851 | -57.73755 | 7493 ft | 259 kts | 57° |
| 2026-04-23 02:38 | 49.22746 | -57.71372 | 7298 ft | 258 kts | 58° |
| 2026-04-23 02:38 | 49.23645 | -57.69009 | 7091 ft | 256 kts | 57° |
| 2026-04-23 02:38 | 49.24551 | -57.66671 | 6906 ft | 255 kts | 56° |
| 2026-04-23 02:39 | 49.25452 | -57.64340 | 6706 ft | 253 kts | 56° |
| 2026-04-23 02:39 | 49.26346 | -57.62024 | 6512 ft | 252 kts | 56° |
| 2026-04-23 02:39 | 49.27234 | -57.59721 | 6309 ft | 250 kts | 56° |
| 2026-04-23 02:39 | 49.28105 | -57.57462 | 6124 ft | 249 kts | 56° |
| 2026-04-23 02:40 | 49.28982 | -57.55188 | 5918 ft | 247 kts | 55° |
| 2026-04-23 02:40 | 49.29853 | -57.52922 | 5710 ft | 246 kts | 56° |
| 2026-04-23 02:40 | 49.30717 | -57.50668 | 5481 ft | 245 kts | 56° |
| 2026-04-23 02:40 | 49.31578 | -57.48433 | 5262 ft | 242 kts | 56° |
| 2026-04-23 02:41 | 49.32424 | -57.46226 | 5036 ft | 237 kts | 56° |
| 2026-04-23 02:41 | 49.33236 | -57.44100 | 4907 ft | 220 kts | 56° |
| 2026-04-23 02:41 | 49.33988 | -57.42137 | 4723 ft | 208 kts | 56° |
| 2026-04-23 02:41 | 49.34697 | -57.40283 | 4545 ft | 201 kts | 55° |
| 2026-04-23 02:42 | 49.35407 | -57.38430 | 4458 ft | 203 kts | 56° |
| 2026-04-23 02:42 | 49.36122 | -57.36562 | 4430 ft | 203 kts | 56° |
| 2026-04-23 02:42 | 49.36823 | -57.34722 | 4400 ft | 198 kts | 56° |
| 2026-04-23 02:42 | 49.37496 | -57.32888 | 4395 ft | 199 kts | 62° |
| 2026-04-23 02:43 | 49.37558 | -57.30769 | 4374 ft | 204 kts | 103° |
| 2026-04-23 02:43 | 49.37143 | -57.28707 | 4214 ft | 202 kts | 103° |
| 2026-04-23 02:43 | 49.36738 | -57.26699 | 3912 ft | 192 kts | 104° |
| 2026-04-23 02:43 | 49.36338 | -57.24848 | 3661 ft | 178 kts | 104° |
| 2026-04-23 02:44 | 49.35795 | -57.23178 | 3327 ft | 182 kts | 130° |
| 2026-04-23 02:44 | 49.34810 | -57.21964 | 3034 ft | 181 kts | 140° |
| 2026-04-23 02:44 | 49.33825 | -57.20760 | 2738 ft | 181 kts | 143° |
| 2026-04-23 02:44 | 49.32631 | -57.20320 | 2371 ft | 178 kts | 194° |
| 2026-04-23 02:45 | 49.31643 | -57.21205 | 2161 ft | 155 kts | 237° |
| 2026-04-23 02:45 | 49.30988 | -57.22413 | 2079 ft | 141 kts | 239° |
| 2026-04-23 02:45 | 49.30412 | -57.23547 | 2021 ft | 129 kts | 241° |
| 2026-04-23 02:45 | 49.29883 | -57.24627 | 1988 ft | 127 kts | 242° |
| 2026-04-23 02:46 | 49.29356 | -57.25712 | 2004 ft | 131 kts | 241° |
| 2026-04-23 02:46 | 49.28778 | -57.26812 | 2016 ft | 134 kts | 238° |
| 2026-04-23 02:46 | 49.28144 | -57.27909 | 1928 ft | 143 kts | 235° |
| 2026-04-23 02:46 | 49.27452 | -57.29032 | 1701 ft | 146 kts | 233° |
| 2026-04-23 02:47 | 49.26760 | -57.30120 | 1486 ft | 136 kts | 232° |
| 2026-04-23 02:47 | 49.26118 | -57.31128 | 1305 ft | 130 kts | 232° |
| 2026-04-23 02:47 | 49.25488 | -57.32133 | 1158 ft | 132 kts | 231° |
| 2026-04-23 02:47 | 49.24854 | -57.33180 | 1001 ft | 135 kts | 231° |
| 2026-04-23 02:48 | 49.24218 | -57.34230 | 911 ft | 134 kts | 229° |
| 2026-04-23 02:48 | 49.23573 | -57.35254 | 720 ft | 133 kts | 227° |
| 2026-04-23 02:48 | 49.22922 | -57.36249 | 486 ft | 134 kts | 229° |
| 2026-04-23 02:48 | 49.22295 | -57.37264 | 270 ft | 128 kts | 227° |
| 2026-04-23 02:49 | 49.21673 | -57.38226 | 91 ft | 122 kts | 230° |
| 2026-04-23 02:49 | 49.21176 | -57.39035 | 51 ft | 81 kts | 223° |
| 2026-04-23 02:49 | 49.21039 | -57.39300 | 54 ft | 15 kts | 291° |
| 2026-04-23 02:49 | 49.21105 | -57.39410 | 55 ft | 14 kts | 311° |
| 2026-04-23 02:50 | 49.21111 | -57.39493 | 56 ft | 5 kts | 232° |
| 2026-04-23 02:50 | 49.21085 | -57.39538 | 54 ft | 6 kts | 227° |
| 2026-04-23 02:50 | 49.21052 | -57.39591 | 55 ft | 8 kts | 227° |
| 2026-04-23 02:50 | 49.21010 | -57.39660 | 55 ft | 10 kts | 225° |
| 2026-04-23 02:51 | 49.21002 | -57.39733 | 56 ft | 6 kts | 303° |
| 2026-04-23 02:51 | 49.21014 | -57.39749 | 52 ft | 2 kts | 337° |
| 2026-04-23 02:51 | 49.21016 | -57.39750 | 52 ft | 0 kts | 340° |